sensor_id;sensor_type;location;lat;lon;timestamp;P1;durP1;ratioP1;P2;durP2;ratioP2
19205;SDS011;59358;52.134;5.596;2023-08-20T00:00:02;16.35;;;11.43;;
19205;SDS011;59358;52.134;5.596;2023-08-20T00:02:32;16.98;;;10.82;;
19205;SDS011;59358;52.134;5.596;2023-08-20T00:05:02;17.23;;;11.23;;
19205;SDS011;59358;52.134;5.596;2023-08-20T00:07:30;16.30;;;9.98;;
19205;SDS011;59358;52.134;5.596;2023-08-20T00:09:57;22.42;;;11.57;;
19205;SDS011;59358;52.134;5.596;2023-08-20T00:12:26;17.23;;;11.35;;
19205;SDS011;59358;52.134;5.596;2023-08-20T00:14:54;20.73;;;11.20;;
19205;SDS011;59358;52.134;5.596;2023-08-20T00:17:23;20.30;;;11.40;;
19205;SDS011;59358;52.134;5.596;2023-08-20T00:19:52;16.45;;;9.80;;
19205;SDS011;59358;52.134;5.596;2023-08-20T00:22:21;18.70;;;10.52;;
19205;SDS011;59358;52.134;5.596;2023-08-20T00:24:49;15.88;;;11.25;;
19205;SDS011;59358;52.134;5.596;2023-08-20T00:27:16;19.30;;;10.90;;
19205;SDS011;59358;52.134;5.596;2023-08-20T00:29:45;20.13;;;10.55;;
19205;SDS011;59358;52.134;5.596;2023-08-20T00:32:12;20.27;;;12.75;;
19205;SDS011;59358;52.134;5.596;2023-08-20T00:34:40;18.48;;;11.55;;
19205;SDS011;59358;52.134;5.596;2023-08-20T00:37:07;21.25;;;12.30;;
19205;SDS011;59358;52.134;5.596;2023-08-20T00:39:34;21.33;;;13.00;;
19205;SDS011;59358;52.134;5.596;2023-08-20T00:42:01;15.90;;;11.95;;
19205;SDS011;59358;52.134;5.596;2023-08-20T00:44:29;16.83;;;12.18;;
19205;SDS011;59358;52.134;5.596;2023-08-20T00:46:57;20.75;;;13.27;;
19205;SDS011;59358;52.134;5.596;2023-08-20T00:49:25;23.63;;;14.48;;
19205;SDS011;59358;52.134;5.596;2023-08-20T00:51:52;23.67;;;14.05;;
19205;SDS011;59358;52.134;5.596;2023-08-20T00:54:20;21.75;;;14.65;;
19205;SDS011;59358;52.134;5.596;2023-08-20T00:56:48;22.33;;;15.05;;
19205;SDS011;59358;52.134;5.596;2023-08-20T00:59:16;19.92;;;14.00;;
19205;SDS011;59358;52.134;5.596;2023-08-20T01:01:43;21.48;;;15.00;;
19205;SDS011;59358;52.134;5.596;2023-08-20T01:04:11;21.65;;;14.30;;
19205;SDS011;59358;52.134;5.596;2023-08-20T01:06:39;21.55;;;13.90;;
19205;SDS011;59358;52.134;5.596;2023-08-20T01:09:15;19.05;;;13.23;;
19205;SDS011;59358;52.134;5.596;2023-08-20T01:11:50;21.00;;;13.13;;
19205;SDS011;59358;52.134;5.596;2023-08-20T01:14:21;20.13;;;12.75;;
19205;SDS011;59358;52.134;5.596;2023-08-20T01:16:48;15.88;;;11.98;;
19205;SDS011;59358;52.134;5.596;2023-08-20T01:19:17;16.50;;;10.43;;
19205;SDS011;59358;52.134;5.596;2023-08-20T01:21:47;17.77;;;11.70;;
19205;SDS011;59358;52.134;5.596;2023-08-20T01:24:30;18.08;;;11.63;;
19205;SDS011;59358;52.134;5.596;2023-08-20T01:27:19;14.95;;;11.98;;
19205;SDS011;59358;52.134;5.596;2023-08-20T01:29:56;17.40;;;12.00;;
19205;SDS011;59358;52.134;5.596;2023-08-20T01:32:23;25.50;;;12.82;;
19205;SDS011;59358;52.134;5.596;2023-08-20T01:34:52;19.52;;;11.50;;
19205;SDS011;59358;52.134;5.596;2023-08-20T01:37:19;21.10;;;12.30;;
19205;SDS011;59358;52.134;5.596;2023-08-20T01:39:46;20.40;;;10.90;;
19205;SDS011;59358;52.134;5.596;2023-08-20T01:42:13;20.27;;;11.65;;
19205;SDS011;59358;52.134;5.596;2023-08-20T01:44:39;19.50;;;12.20;;
19205;SDS011;59358;52.134;5.596;2023-08-20T01:47:08;19.13;;;12.18;;
19205;SDS011;59358;52.134;5.596;2023-08-20T01:49:35;14.80;;;10.95;;
19205;SDS011;59358;52.134;5.596;2023-08-20T01:52:02;16.27;;;11.05;;
19205;SDS011;59358;52.134;5.596;2023-08-20T01:54:29;15.77;;;10.38;;
19205;SDS011;59358;52.134;5.596;2023-08-20T01:56:55;16.80;;;10.10;;
19205;SDS011;59358;52.134;5.596;2023-08-20T01:59:22;12.80;;;10.38;;
19205;SDS011;59358;52.134;5.596;2023-08-20T02:01:49;17.50;;;10.90;;
19205;SDS011;59358;52.134;5.596;2023-08-20T02:04:17;16.38;;;10.43;;
19205;SDS011;59358;52.134;5.596;2023-08-20T02:06:44;15.25;;;11.20;;
19205;SDS011;59358;52.134;5.596;2023-08-20T02:09:11;13.65;;;11.35;;
19205;SDS011;59358;52.134;5.596;2023-08-20T02:11:38;15.23;;;12.07;;
19205;SDS011;59358;52.134;5.596;2023-08-20T02:14:05;16.17;;;11.05;;
19205;SDS011;59358;52.134;5.596;2023-08-20T02:16:32;20.08;;;11.88;;
19205;SDS011;59358;52.134;5.596;2023-08-20T02:18:58;15.40;;;11.30;;
19205;SDS011;59358;52.134;5.596;2023-08-20T02:21:28;15.20;;;10.90;;
19205;SDS011;59358;52.134;5.596;2023-08-20T02:23:55;17.73;;;11.63;;
19205;SDS011;59358;52.134;5.596;2023-08-20T02:26:22;19.73;;;13.15;;
19205;SDS011;59358;52.134;5.596;2023-08-20T02:28:49;22.08;;;12.63;;
19205;SDS011;59358;52.134;5.596;2023-08-20T02:31:15;19.20;;;12.68;;
19205;SDS011;59358;52.134;5.596;2023-08-20T02:33:42;18.77;;;13.18;;
19205;SDS011;59358;52.134;5.596;2023-08-20T02:36:09;17.85;;;12.18;;
19205;SDS011;59358;52.134;5.596;2023-08-20T02:38:37;16.75;;;12.48;;
19205;SDS011;59358;52.134;5.596;2023-08-20T02:41:04;19.15;;;12.90;;
19205;SDS011;59358;52.134;5.596;2023-08-20T02:43:31;16.52;;;12.35;;
19205;SDS011;59358;52.134;5.596;2023-08-20T02:45:58;20.55;;;12.95;;
19205;SDS011;59358;52.134;5.596;2023-08-20T02:48:25;17.90;;;12.60;;
19205;SDS011;59358;52.134;5.596;2023-08-20T02:50:52;21.15;;;12.30;;
19205;SDS011;59358;52.134;5.596;2023-08-20T02:53:19;21.30;;;12.68;;
19205;SDS011;59358;52.134;5.596;2023-08-20T02:55:48;19.52;;;12.45;;
19205;SDS011;59358;52.134;5.596;2023-08-20T02:58:15;19.45;;;12.80;;
19205;SDS011;59358;52.134;5.596;2023-08-20T03:00:42;19.50;;;12.50;;
19205;SDS011;59358;52.134;5.596;2023-08-20T03:03:10;17.88;;;11.75;;
19205;SDS011;59358;52.134;5.596;2023-08-20T03:05:36;21.45;;;12.13;;
19205;SDS011;59358;52.134;5.596;2023-08-20T03:08:04;21.15;;;13.02;;
19205;SDS011;59358;52.134;5.596;2023-08-20T03:10:32;18.80;;;12.93;;
19205;SDS011;59358;52.134;5.596;2023-08-20T03:13:02;33.13;;;15.32;;
19205;SDS011;59358;52.134;5.596;2023-08-20T03:15:29;22.00;;;15.10;;
19205;SDS011;59358;52.134;5.596;2023-08-20T03:17:56;25.65;;;15.48;;
19205;SDS011;59358;52.134;5.596;2023-08-20T03:20:23;27.27;;;16.42;;
19205;SDS011;59358;52.134;5.596;2023-08-20T03:22:50;28.27;;;14.98;;
19205;SDS011;59358;52.134;5.596;2023-08-20T03:25:17;27.45;;;15.60;;
19205;SDS011;59358;52.134;5.596;2023-08-20T03:27:44;26.88;;;15.13;;
19205;SDS011;59358;52.134;5.596;2023-08-20T03:30:13;22.15;;;15.02;;
19205;SDS011;59358;52.134;5.596;2023-08-20T03:32:40;23.40;;;15.73;;
19205;SDS011;59358;52.134;5.596;2023-08-20T03:35:07;27.25;;;15.15;;
19205;SDS011;59358;52.134;5.596;2023-08-20T03:37:34;25.65;;;15.50;;
19205;SDS011;59358;52.134;5.596;2023-08-20T03:40:01;25.35;;;14.68;;
19205;SDS011;59358;52.134;5.596;2023-08-20T03:42:29;29.05;;;14.75;;
19205;SDS011;59358;52.134;5.596;2023-08-20T03:44:56;26.23;;;15.20;;
19205;SDS011;59358;52.134;5.596;2023-08-20T03:47:24;27.75;;;14.98;;
19205;SDS011;59358;52.134;5.596;2023-08-20T03:49:52;24.65;;;14.52;;
19205;SDS011;59358;52.134;5.596;2023-08-20T03:52:18;25.95;;;14.07;;
19205;SDS011;59358;52.134;5.596;2023-08-20T03:54:45;26.52;;;15.43;;
19205;SDS011;59358;52.134;5.596;2023-08-20T03:57:12;27.88;;;15.20;;
19205;SDS011;59358;52.134;5.596;2023-08-20T03:59:39;30.45;;;15.45;;
19205;SDS011;59358;52.134;5.596;2023-08-20T04:02:06;22.88;;;15.30;;
19205;SDS011;59358;52.134;5.596;2023-08-20T04:04:34;26.05;;;15.10;;
19205;SDS011;59358;52.134;5.596;2023-08-20T04:07:02;21.88;;;14.10;;
19205;SDS011;59358;52.134;5.596;2023-08-20T04:09:29;24.52;;;14.35;;
19205;SDS011;59358;52.134;5.596;2023-08-20T04:11:56;24.90;;;15.15;;
19205;SDS011;59358;52.134;5.596;2023-08-20T04:14:23;27.15;;;15.38;;
19205;SDS011;59358;52.134;5.596;2023-08-20T04:16:50;21.05;;;13.20;;
19205;SDS011;59358;52.134;5.596;2023-08-20T04:19:17;29.85;;;15.32;;
19205;SDS011;59358;52.134;5.596;2023-08-20T04:21:45;22.48;;;14.38;;
19205;SDS011;59358;52.134;5.596;2023-08-20T04:24:12;21.20;;;14.32;;
19205;SDS011;59358;52.134;5.596;2023-08-20T04:26:39;22.20;;;14.85;;
19205;SDS011;59358;52.134;5.596;2023-08-20T04:29:06;21.58;;;14.07;;
19205;SDS011;59358;52.134;5.596;2023-08-20T04:31:33;22.13;;;13.85;;
19205;SDS011;59358;52.134;5.596;2023-08-20T04:34:00;27.15;;;15.68;;
19205;SDS011;59358;52.134;5.596;2023-08-20T04:36:27;25.15;;;13.93;;
19205;SDS011;59358;52.134;5.596;2023-08-20T04:38:55;31.08;;;16.58;;
19205;SDS011;59358;52.134;5.596;2023-08-20T04:41:22;23.42;;;16.23;;
19205;SDS011;59358;52.134;5.596;2023-08-20T04:43:49;29.30;;;17.35;;
19205;SDS011;59358;52.134;5.596;2023-08-20T04:46:16;27.17;;;17.02;;
19205;SDS011;59358;52.134;5.596;2023-08-20T04:48:43;31.13;;;17.05;;
19205;SDS011;59358;52.134;5.596;2023-08-20T04:51:10;25.17;;;16.15;;
19205;SDS011;59358;52.134;5.596;2023-08-20T04:53:36;28.35;;;17.13;;
19205;SDS011;59358;52.134;5.596;2023-08-20T04:56:05;23.38;;;15.50;;
19205;SDS011;59358;52.134;5.596;2023-08-20T04:58:32;24.23;;;16.23;;
19205;SDS011;59358;52.134;5.596;2023-08-20T05:00:58;24.40;;;14.07;;
19205;SDS011;59358;52.134;5.596;2023-08-20T05:03:25;41.42;;;16.00;;
19205;SDS011;59358;52.134;5.596;2023-08-20T05:05:52;23.05;;;14.18;;
19205;SDS011;59358;52.134;5.596;2023-08-20T05:08:19;22.95;;;14.25;;
19205;SDS011;59358;52.134;5.596;2023-08-20T05:10:46;24.40;;;14.15;;
19205;SDS011;59358;52.134;5.596;2023-08-20T05:13:14;20.90;;;13.80;;
19205;SDS011;59358;52.134;5.596;2023-08-20T05:15:41;21.90;;;13.73;;
19205;SDS011;59358;52.134;5.596;2023-08-20T05:18:08;25.90;;;13.55;;
19205;SDS011;59358;52.134;5.596;2023-08-20T05:20:37;20.83;;;12.35;;
19205;SDS011;59358;52.134;5.596;2023-08-20T05:23:06;21.52;;;11.27;;
19205;SDS011;59358;52.134;5.596;2023-08-20T05:25:33;17.90;;;11.85;;
19205;SDS011;59358;52.134;5.596;2023-08-20T05:27:59;17.80;;;12.73;;
19205;SDS011;59358;52.134;5.596;2023-08-20T05:30:28;21.48;;;12.02;;
19205;SDS011;59358;52.134;5.596;2023-08-20T05:32:54;25.13;;;12.32;;
19205;SDS011;59358;52.134;5.596;2023-08-20T05:35:21;24.95;;;12.55;;
19205;SDS011;59358;52.134;5.596;2023-08-20T05:37:48;18.23;;;11.15;;
19205;SDS011;59358;52.134;5.596;2023-08-20T05:40:15;20.15;;;11.93;;
19205;SDS011;59358;52.134;5.596;2023-08-20T05:42:42;23.85;;;11.68;;
19205;SDS011;59358;52.134;5.596;2023-08-20T05:45:09;19.13;;;10.95;;
19205;SDS011;59358;52.134;5.596;2023-08-20T05:47:37;20.65;;;10.65;;
19205;SDS011;59358;52.134;5.596;2023-08-20T05:50:04;22.27;;;11.45;;
19205;SDS011;59358;52.134;5.596;2023-08-20T05:52:32;21.98;;;11.45;;
19205;SDS011;59358;52.134;5.596;2023-08-20T05:54:59;20.45;;;10.85;;
19205;SDS011;59358;52.134;5.596;2023-08-20T05:57:26;17.30;;;10.43;;
19205;SDS011;59358;52.134;5.596;2023-08-20T05:59:52;22.00;;;10.57;;
19205;SDS011;59358;52.134;5.596;2023-08-20T06:02:19;22.13;;;9.75;;
19205;SDS011;59358;52.134;5.596;2023-08-20T06:04:47;25.48;;;10.52;;
19205;SDS011;59358;52.134;5.596;2023-08-20T06:07:16;19.23;;;8.70;;
19205;SDS011;59358;52.134;5.596;2023-08-20T06:09:42;18.38;;;9.70;;
19205;SDS011;59358;52.134;5.596;2023-08-20T06:12:09;18.95;;;8.02;;
19205;SDS011;59358;52.134;5.596;2023-08-20T06:14:36;18.52;;;8.15;;
19205;SDS011;59358;52.134;5.596;2023-08-20T06:17:03;17.45;;;7.55;;
19205;SDS011;59358;52.134;5.596;2023-08-20T06:19:30;18.05;;;8.88;;
19205;SDS011;59358;52.134;5.596;2023-08-20T06:21:58;15.65;;;7.00;;
19205;SDS011;59358;52.134;5.596;2023-08-20T06:24:25;13.70;;;6.32;;
19205;SDS011;59358;52.134;5.596;2023-08-20T06:26:52;11.95;;;6.50;;
19205;SDS011;59358;52.134;5.596;2023-08-20T06:29:19;17.80;;;7.20;;
19205;SDS011;59358;52.134;5.596;2023-08-20T06:31:47;15.40;;;6.80;;
19205;SDS011;59358;52.134;5.596;2023-08-20T06:34:14;14.35;;;6.00;;
19205;SDS011;59358;52.134;5.596;2023-08-20T06:36:41;12.55;;;6.35;;
19205;SDS011;59358;52.134;5.596;2023-08-20T06:39:09;16.00;;;6.80;;
19205;SDS011;59358;52.134;5.596;2023-08-20T06:41:36;12.45;;;5.65;;
19205;SDS011;59358;52.134;5.596;2023-08-20T06:44:03;16.42;;;5.30;;
19205;SDS011;59358;52.134;5.596;2023-08-20T06:46:30;16.02;;;5.90;;
19205;SDS011;59358;52.134;5.596;2023-08-20T06:48:57;14.48;;;5.50;;
19205;SDS011;59358;52.134;5.596;2023-08-20T06:51:24;14.23;;;5.13;;
19205;SDS011;59358;52.134;5.596;2023-08-20T06:53:52;13.75;;;5.20;;
19205;SDS011;59358;52.134;5.596;2023-08-20T06:56:21;13.77;;;5.32;;
19205;SDS011;59358;52.134;5.596;2023-08-20T06:58:48;13.02;;;5.13;;
19205;SDS011;59358;52.134;5.596;2023-08-20T07:01:15;13.90;;;5.30;;
19205;SDS011;59358;52.134;5.596;2023-08-20T07:03:43;11.07;;;4.88;;
19205;SDS011;59358;52.134;5.596;2023-08-20T07:06:10;14.32;;;4.82;;
19205;SDS011;59358;52.134;5.596;2023-08-20T07:08:39;14.05;;;5.30;;
19205;SDS011;59358;52.134;5.596;2023-08-20T07:11:07;18.27;;;4.50;;
19205;SDS011;59358;52.134;5.596;2023-08-20T07:13:35;19.02;;;5.10;;
19205;SDS011;59358;52.134;5.596;2023-08-20T07:16:03;12.02;;;4.72;;
19205;SDS011;59358;52.134;5.596;2023-08-20T07:18:30;9.82;;;4.22;;
19205;SDS011;59358;52.134;5.596;2023-08-20T07:20:57;12.75;;;4.95;;
19205;SDS011;59358;52.134;5.596;2023-08-20T07:23:24;11.70;;;5.15;;
19205;SDS011;59358;52.134;5.596;2023-08-20T07:25:51;16.20;;;5.63;;
19205;SDS011;59358;52.134;5.596;2023-08-20T07:28:30;11.98;;;4.75;;
19205;SDS011;59358;52.134;5.596;2023-08-20T07:31:12;15.38;;;4.80;;
19205;SDS011;59358;52.134;5.596;2023-08-20T07:33:39;10.52;;;4.45;;
19205;SDS011;59358;52.134;5.596;2023-08-20T07:36:06;16.63;;;5.00;;
19205;SDS011;59358;52.134;5.596;2023-08-20T07:38:33;14.93;;;4.32;;
19205;SDS011;59358;52.134;5.596;2023-08-20T07:41:02;14.82;;;4.85;;
19205;SDS011;59358;52.134;5.596;2023-08-20T07:43:29;9.70;;;4.20;;
19205;SDS011;59358;52.134;5.596;2023-08-20T07:45:56;9.55;;;4.13;;
19205;SDS011;59358;52.134;5.596;2023-08-20T07:48:24;8.35;;;3.60;;
19205;SDS011;59358;52.134;5.596;2023-08-20T07:50:51;7.85;;;3.72;;
19205;SDS011;59358;52.134;5.596;2023-08-20T07:53:18;12.70;;;3.92;;
19205;SDS011;59358;52.134;5.596;2023-08-20T07:55:44;13.82;;;4.00;;
19205;SDS011;59358;52.134;5.596;2023-08-20T07:58:11;10.65;;;4.40;;
19205;SDS011;59358;52.134;5.596;2023-08-20T08:00:38;15.05;;;5.00;;
19205;SDS011;59358;52.134;5.596;2023-08-20T08:03:05;11.75;;;4.22;;
19205;SDS011;59358;52.134;5.596;2023-08-20T08:05:34;14.27;;;3.80;;
19205;SDS011;59358;52.134;5.596;2023-08-20T08:08:01;11.43;;;4.88;;
19205;SDS011;59358;52.134;5.596;2023-08-20T08:10:28;11.20;;;4.43;;
19205;SDS011;59358;52.134;5.596;2023-08-20T08:12:55;14.52;;;3.88;;
19205;SDS011;59358;52.134;5.596;2023-08-20T08:15:22;11.57;;;3.70;;
19205;SDS011;59358;52.134;5.596;2023-08-20T08:17:48;9.27;;;3.50;;
19205;SDS011;59358;52.134;5.596;2023-08-20T08:20:15;12.68;;;3.80;;
19205;SDS011;59358;52.134;5.596;2023-08-20T08:22:43;14.10;;;3.78;;
19205;SDS011;59358;52.134;5.596;2023-08-20T08:25:10;5.82;;;3.17;;
19205;SDS011;59358;52.134;5.596;2023-08-20T08:27:37;10.52;;;3.28;;
19205;SDS011;59358;52.134;5.596;2023-08-20T08:30:04;6.85;;;2.50;;
19205;SDS011;59358;52.134;5.596;2023-08-20T08:32:32;8.57;;;2.85;;
19205;SDS011;59358;52.134;5.596;2023-08-20T08:34:59;11.23;;;3.08;;
19205;SDS011;59358;52.134;5.596;2023-08-20T08:37:26;7.65;;;2.83;;
19205;SDS011;59358;52.134;5.596;2023-08-20T08:39:54;5.63;;;2.42;;
19205;SDS011;59358;52.134;5.596;2023-08-20T08:42:21;8.85;;;2.15;;
19205;SDS011;59358;52.134;5.596;2023-08-20T08:44:50;12.30;;;2.85;;
19205;SDS011;59358;52.134;5.596;2023-08-20T08:47:17;8.32;;;2.25;;
19205;SDS011;59358;52.134;5.596;2023-08-20T08:49:44;12.20;;;2.15;;
19205;SDS011;59358;52.134;5.596;2023-08-20T08:52:12;5.88;;;2.25;;
19205;SDS011;59358;52.134;5.596;2023-08-20T08:54:39;9.43;;;1.65;;
19205;SDS011;59358;52.134;5.596;2023-08-20T08:57:07;7.22;;;1.70;;
19205;SDS011;59358;52.134;5.596;2023-08-20T08:59:34;5.47;;;1.73;;
19205;SDS011;59358;52.134;5.596;2023-08-20T09:02:01;7.15;;;2.17;;
19205;SDS011;59358;52.134;5.596;2023-08-20T09:04:33;4.57;;;1.88;;
19205;SDS011;59358;52.134;5.596;2023-08-20T09:07:00;6.72;;;2.08;;
19205;SDS011;59358;52.134;5.596;2023-08-20T09:09:28;8.85;;;2.55;;
19205;SDS011;59358;52.134;5.596;2023-08-20T09:11:56;7.00;;;1.70;;
19205;SDS011;59358;52.134;5.596;2023-08-20T09:14:27;9.90;;;1.95;;
19205;SDS011;59358;52.134;5.596;2023-08-20T09:16:55;4.22;;;1.85;;
19205;SDS011;59358;52.134;5.596;2023-08-20T09:19:23;6.35;;;2.10;;
19205;SDS011;59358;52.134;5.596;2023-08-20T09:21:50;5.85;;;1.98;;
19205;SDS011;59358;52.134;5.596;2023-08-20T09:24:25;4.07;;;1.65;;
19205;SDS011;59358;52.134;5.596;2023-08-20T09:26:56;5.82;;;1.08;;
19205;SDS011;59358;52.134;5.596;2023-08-20T09:29:25;4.20;;;1.40;;
19205;SDS011;59358;52.134;5.596;2023-08-20T09:31:59;4.50;;;1.85;;
19205;SDS011;59358;52.134;5.596;2023-08-20T09:34:35;11.95;;;2.15;;
19205;SDS011;59358;52.134;5.596;2023-08-20T09:37:03;3.97;;;1.60;;
19205;SDS011;59358;52.134;5.596;2023-08-20T09:39:30;8.48;;;1.77;;
19205;SDS011;59358;52.134;5.596;2023-08-20T09:41:57;2.90;;;1.35;;
19205;SDS011;59358;52.134;5.596;2023-08-20T09:44:27;6.00;;;1.80;;
19205;SDS011;59358;52.134;5.596;2023-08-20T09:47:00;5.72;;;1.63;;
19205;SDS011;59358;52.134;5.596;2023-08-20T09:49:29;8.48;;;1.60;;
19205;SDS011;59358;52.134;5.596;2023-08-20T09:51:59;6.93;;;1.63;;
19205;SDS011;59358;52.134;5.596;2023-08-20T09:54:31;4.60;;;1.73;;
19205;SDS011;59358;52.134;5.596;2023-08-20T09:57:06;6.40;;;1.55;;
19205;SDS011;59358;52.134;5.596;2023-08-20T09:59:39;6.05;;;1.60;;
19205;SDS011;59358;52.134;5.596;2023-08-20T10:02:08;8.50;;;1.60;;
19205;SDS011;59358;52.134;5.596;2023-08-20T10:04:37;6.65;;;2.40;;
19205;SDS011;59358;52.134;5.596;2023-08-20T10:07:04;4.30;;;1.45;;
19205;SDS011;59358;52.134;5.596;2023-08-20T10:09:32;4.72;;;1.52;;
19205;SDS011;59358;52.134;5.596;2023-08-20T10:12:00;8.00;;;1.60;;
19205;SDS011;59358;52.134;5.596;2023-08-20T10:14:28;8.35;;;1.80;;
19205;SDS011;59358;52.134;5.596;2023-08-20T10:16:56;6.68;;;1.58;;
19205;SDS011;59358;52.134;5.596;2023-08-20T10:19:23;4.60;;;1.48;;
19205;SDS011;59358;52.134;5.596;2023-08-20T10:21:52;3.72;;;1.75;;
19205;SDS011;59358;52.134;5.596;2023-08-20T10:24:19;5.05;;;1.50;;
19205;SDS011;59358;52.134;5.596;2023-08-20T10:26:46;7.03;;;1.65;;
19205;SDS011;59358;52.134;5.596;2023-08-20T10:32:05;3.72;;;1.65;;
19205;SDS011;59358;52.134;5.596;2023-08-20T10:34:33;5.13;;;1.50;;
19205;SDS011;59358;52.134;5.596;2023-08-20T10:37:02;9.77;;;1.77;;
19205;SDS011;59358;52.134;5.596;2023-08-20T10:39:34;3.63;;;1.30;;
19205;SDS011;59358;52.134;5.596;2023-08-20T10:42:21;4.00;;;1.48;;
19205;SDS011;59358;52.134;5.596;2023-08-20T10:44:58;4.43;;;1.25;;
19205;SDS011;59358;52.134;5.596;2023-08-20T10:47:36;2.92;;;1.02;;
19205;SDS011;59358;52.134;5.596;2023-08-20T10:50:03;5.05;;;1.40;;
19205;SDS011;59358;52.134;5.596;2023-08-20T10:52:31;6.22;;;1.38;;
19205;SDS011;59358;52.134;5.596;2023-08-20T10:54:58;5.50;;;1.40;;
19205;SDS011;59358;52.134;5.596;2023-08-20T10:57:32;4.65;;;1.23;;
19205;SDS011;59358;52.134;5.596;2023-08-20T11:00:01;2.90;;;1.30;;
19205;SDS011;59358;52.134;5.596;2023-08-20T11:02:35;6.28;;;1.73;;
19205;SDS011;59358;52.134;5.596;2023-08-20T11:05:02;3.65;;;1.40;;
19205;SDS011;59358;52.134;5.596;2023-08-20T11:07:30;3.38;;;1.55;;
19205;SDS011;59358;52.134;5.596;2023-08-20T11:09:59;3.33;;;1.25;;
19205;SDS011;59358;52.134;5.596;2023-08-20T11:12:29;6.07;;;1.30;;
19205;SDS011;59358;52.134;5.596;2023-08-20T11:14:59;6.28;;;1.60;;
19205;SDS011;59358;52.134;5.596;2023-08-20T11:17:26;7.00;;;1.70;;
19205;SDS011;59358;52.134;5.596;2023-08-20T11:19:55;5.45;;;1.40;;
19205;SDS011;59358;52.134;5.596;2023-08-20T11:22:22;5.38;;;1.17;;
19205;SDS011;59358;52.134;5.596;2023-08-20T11:24:49;5.03;;;1.52;;
19205;SDS011;59358;52.134;5.596;2023-08-20T11:27:15;2.85;;;1.17;;
19205;SDS011;59358;52.134;5.596;2023-08-20T11:29:42;2.95;;;1.20;;
19205;SDS011;59358;52.134;5.596;2023-08-20T11:32:09;3.63;;;1.70;;
19205;SDS011;59358;52.134;5.596;2023-08-20T11:34:36;3.42;;;1.45;;
19205;SDS011;59358;52.134;5.596;2023-08-20T11:37:05;3.15;;;1.00;;
19205;SDS011;59358;52.134;5.596;2023-08-20T11:39:32;2.65;;;1.10;;
19205;SDS011;59358;52.134;5.596;2023-08-20T11:41:59;4.00;;;1.45;;
19205;SDS011;59358;52.134;5.596;2023-08-20T11:44:26;1.83;;;1.05;;
19205;SDS011;59358;52.134;5.596;2023-08-20T11:46:53;3.80;;;1.48;;
19205;SDS011;59358;52.134;5.596;2023-08-20T11:49:26;2.75;;;1.00;;
19205;SDS011;59358;52.134;5.596;2023-08-20T11:51:55;3.72;;;1.50;;
19205;SDS011;59358;52.134;5.596;2023-08-20T11:54:24;4.53;;;1.40;;
19205;SDS011;59358;52.134;5.596;2023-08-20T11:56:51;6.30;;;1.50;;
19205;SDS011;59358;52.134;5.596;2023-08-20T11:59:19;2.55;;;1.20;;
19205;SDS011;59358;52.134;5.596;2023-08-20T12:01:49;4.03;;;1.23;;
19205;SDS011;59358;52.134;5.596;2023-08-20T12:04:17;4.38;;;1.45;;
19205;SDS011;59358;52.134;5.596;2023-08-20T12:06:44;5.95;;;1.38;;
19205;SDS011;59358;52.134;5.596;2023-08-20T12:09:20;5.13;;;1.20;;
19205;SDS011;59358;52.134;5.596;2023-08-20T12:11:52;2.97;;;1.42;;
19205;SDS011;59358;52.134;5.596;2023-08-20T12:14:21;4.43;;;1.20;;
19205;SDS011;59358;52.134;5.596;2023-08-20T12:16:48;9.02;;;1.60;;
19205;SDS011;59358;52.134;5.596;2023-08-20T12:19:16;6.03;;;1.77;;
19205;SDS011;59358;52.134;5.596;2023-08-20T12:21:43;4.47;;;1.30;;
19205;SDS011;59358;52.134;5.596;2023-08-20T12:24:11;5.25;;;1.70;;
19205;SDS011;59358;52.134;5.596;2023-08-20T12:26:38;4.78;;;1.80;;
19205;SDS011;59358;52.134;5.596;2023-08-20T12:29:07;4.90;;;1.70;;
19205;SDS011;59358;52.134;5.596;2023-08-20T12:31:34;5.70;;;1.50;;
19205;SDS011;59358;52.134;5.596;2023-08-20T12:34:01;2.80;;;1.17;;
19205;SDS011;59358;52.134;5.596;2023-08-20T12:36:29;2.42;;;1.20;;
19205;SDS011;59358;52.134;5.596;2023-08-20T12:38:55;4.47;;;1.20;;
19205;SDS011;59358;52.134;5.596;2023-08-20T12:41:23;6.10;;;2.10;;
19205;SDS011;59358;52.134;5.596;2023-08-20T12:43:50;5.63;;;1.50;;
19205;SDS011;59358;52.134;5.596;2023-08-20T12:46:18;4.43;;;1.35;;
19205;SDS011;59358;52.134;5.596;2023-08-20T12:48:46;4.57;;;1.27;;
19205;SDS011;59358;52.134;5.596;2023-08-20T12:51:13;4.90;;;1.27;;
19205;SDS011;59358;52.134;5.596;2023-08-20T12:53:42;7.57;;;1.80;;
19205;SDS011;59358;52.134;5.596;2023-08-20T12:56:09;3.22;;;1.13;;
19205;SDS011;59358;52.134;5.596;2023-08-20T12:58:37;4.20;;;1.35;;
19205;SDS011;59358;52.134;5.596;2023-08-20T13:01:03;7.32;;;2.10;;
19205;SDS011;59358;52.134;5.596;2023-08-20T13:03:32;4.15;;;1.30;;
19205;SDS011;59358;52.134;5.596;2023-08-20T13:05:59;6.32;;;1.92;;
19205;SDS011;59358;52.134;5.596;2023-08-20T13:08:27;2.38;;;1.30;;
19205;SDS011;59358;52.134;5.596;2023-08-20T13:10:56;3.58;;;1.50;;
19205;SDS011;59358;52.134;5.596;2023-08-20T13:13:24;4.40;;;1.70;;
19205;SDS011;59358;52.134;5.596;2023-08-20T13:15:52;3.33;;;1.70;;
19205;SDS011;59358;52.134;5.596;2023-08-20T13:18:20;4.68;;;1.58;;
19205;SDS011;59358;52.134;5.596;2023-08-20T13:20:51;3.80;;;1.30;;
19205;SDS011;59358;52.134;5.596;2023-08-20T13:23:18;3.22;;;1.15;;
19205;SDS011;59358;52.134;5.596;2023-08-20T13:25:45;4.32;;;1.05;;
19205;SDS011;59358;52.134;5.596;2023-08-20T13:28:12;2.60;;;1.40;;
19205;SDS011;59358;52.134;5.596;2023-08-20T13:30:39;5.25;;;1.63;;
19205;SDS011;59358;52.134;5.596;2023-08-20T13:33:06;4.65;;;1.00;;
19205;SDS011;59358;52.134;5.596;2023-08-20T13:35:33;4.78;;;1.50;;
19205;SDS011;59358;52.134;5.596;2023-08-20T13:38:01;3.38;;;1.35;;
19205;SDS011;59358;52.134;5.596;2023-08-20T13:40:29;5.25;;;1.33;;
19205;SDS011;59358;52.134;5.596;2023-08-20T13:42:56;4.97;;;1.55;;
19205;SDS011;59358;52.134;5.596;2023-08-20T13:45:23;5.57;;;1.73;;
19205;SDS011;59358;52.134;5.596;2023-08-20T13:47:49;4.93;;;1.40;;
19205;SDS011;59358;52.134;5.596;2023-08-20T13:50:16;5.93;;;1.65;;
19205;SDS011;59358;52.134;5.596;2023-08-20T13:52:43;5.93;;;1.75;;
19205;SDS011;59358;52.134;5.596;2023-08-20T13:55:11;5.97;;;1.80;;
19205;SDS011;59358;52.134;5.596;2023-08-20T13:57:38;5.15;;;1.27;;
19205;SDS011;59358;52.134;5.596;2023-08-20T14:00:06;5.25;;;1.48;;
19205;SDS011;59358;52.134;5.596;2023-08-20T14:02:35;2.70;;;1.70;;
19205;SDS011;59358;52.134;5.596;2023-08-20T14:05:02;3.05;;;1.42;;
19205;SDS011;59358;52.134;5.596;2023-08-20T14:07:30;4.07;;;1.63;;
19205;SDS011;59358;52.134;5.596;2023-08-20T14:09:57;7.18;;;2.10;;
19205;SDS011;59358;52.134;5.596;2023-08-20T14:12:26;4.32;;;1.48;;
19205;SDS011;59358;52.134;5.596;2023-08-20T14:14:54;3.42;;;1.17;;
19205;SDS011;59358;52.134;5.596;2023-08-20T14:17:21;3.63;;;1.58;;
19205;SDS011;59358;52.134;5.596;2023-08-20T14:19:48;4.38;;;1.50;;
19205;SDS011;59358;52.134;5.596;2023-08-20T14:22:15;5.45;;;1.52;;
19205;SDS011;59358;52.134;5.596;2023-08-20T14:24:43;8.00;;;1.60;;
19205;SDS011;59358;52.134;5.596;2023-08-20T14:27:10;3.53;;;1.15;;
19205;SDS011;59358;52.134;5.596;2023-08-20T14:29:38;4.75;;;1.88;;
19205;SDS011;59358;52.134;5.596;2023-08-20T14:32:06;5.50;;;1.60;;
19205;SDS011;59358;52.134;5.596;2023-08-20T14:34:33;5.63;;;1.67;;
19205;SDS011;59358;52.134;5.596;2023-08-20T14:37:00;3.10;;;1.50;;
19205;SDS011;59358;52.134;5.596;2023-08-20T14:39:28;4.38;;;1.55;;
19205;SDS011;59358;52.134;5.596;2023-08-20T14:41:56;4.85;;;1.42;;